sensor_id;sensor_type;location;lat;lon;timestamp;pressure;altitude;pressure_sealevel;temperature;humidity
10940;BME280;5522;42.696;23.494;2023-11-21T00:02:26;53731.19;;;-139.68;100.00
10940;BME280;5522;42.696;23.494;2023-11-21T00:04:53;53695.00;;;-139.68;100.00
10940;BME280;5522;42.696;23.494;2023-11-21T00:07:22;53666.84;;;-139.68;100.00
10940;BME280;5522;42.696;23.494;2023-11-21T00:09:49;53658.81;;;-139.68;100.00
10940;BME280;5522;42.696;23.494;2023-11-21T00:12:17;53735.19;;;-139.68;100.00
10940;BME280;5522;42.696;23.494;2023-11-21T00:14:46;53672.88;;;-139.68;100.00
10940;BME280;5522;42.696;23.494;2023-11-21T00:17:13;53743.25;;;-139.68;100.00
10940;BME280;5522;42.696;23.494;2023-11-21T00:19:39;53668.88;;;-139.68;100.00
10940;BME280;5522;42.696;23.494;2023-11-21T00:22:08;53701.03;;;-139.68;100.00
10940;BME280;5522;42.696;23.494;2023-11-21T00:24:35;53699.03;;;-139.68;100.00
10940;BME280;5522;42.696;23.494;2023-11-21T00:27:02;53707.06;;;-139.68;100.00
10940;BME280;5522;42.696;23.494;2023-11-21T00:30:05;53707.06;;;-139.68;100.00
10940;BME280;5522;42.696;23.494;2023-11-21T00:32:32;53697.00;;;-139.68;100.00
10940;BME280;5522;42.696;23.494;2023-11-21T00:34:59;53731.19;;;-139.68;100.00
10940;BME280;5522;42.696;23.494;2023-11-21T00:37:26;53731.19;;;-139.68;100.00
10940;BME280;5522;42.696;23.494;2023-11-21T00:39:53;53723.13;;;-139.68;100.00
10940;BME280;5522;42.696;23.494;2023-11-21T00:42:19;53719.13;;;-139.68;100.00
10940;BME280;5522;42.696;23.494;2023-11-21T00:44:48;53729.16;;;-139.68;100.00
10940;BME280;5522;42.696;23.494;2023-11-21T00:47:16;53715.09;;;-139.68;100.00
10940;BME280;5522;42.696;23.494;2023-11-21T00:49:43;53709.06;;;-139.68;100.00
10940;BME280;5522;42.696;23.494;2023-11-21T00:52:10;53705.06;;;-139.68;100.00
10940;BME280;5522;42.696;23.494;2023-11-21T00:54:37;53739.22;;;-139.68;100.00
10940;BME280;5522;42.696;23.494;2023-11-21T00:57:04;53727.16;;;-139.68;100.00
10940;BME280;5522;42.696;23.494;2023-11-21T00:59:30;53727.16;;;-139.68;100.00
10940;BME280;5522;42.696;23.494;2023-11-21T01:07:14;53688.97;;;-139.68;100.00
10940;BME280;5522;42.696;23.494;2023-11-21T01:09:41;53743.25;;;-139.68;100.00
10940;BME280;5522;42.696;23.494;2023-11-21T01:12:09;53733.19;;;-139.68;100.00
10940;BME280;5522;42.696;23.494;2023-11-21T01:14:37;53753.28;;;-139.68;100.00
10940;BME280;5522;42.696;23.494;2023-11-21T01:17:04;53733.19;;;-139.68;100.00
10940;BME280;5522;42.696;23.494;2023-11-21T01:19:31;53719.13;;;-139.68;100.00
10940;BME280;5522;42.696;23.494;2023-11-21T01:21:58;53703.03;;;-139.68;100.00
10940;BME280;5522;42.696;23.494;2023-11-21T01:24:26;53723.13;;;-139.68;100.00
10940;BME280;5522;42.696;23.494;2023-11-21T01:26:53;53715.09;;;-139.68;100.00
10940;BME280;5522;42.696;23.494;2023-11-21T01:29:20;53705.06;;;-139.68;100.00
10940;BME280;5522;42.696;23.494;2023-11-21T01:31:47;53737.22;;;-139.68;100.00
10940;BME280;5522;42.696;23.494;2023-11-21T01:34:13;53723.13;;;-139.68;100.00
10940;BME280;5522;42.696;23.494;2023-11-21T01:36:40;53701.03;;;-139.68;100.00
10940;BME280;5522;42.696;23.494;2023-11-21T01:39:07;53731.19;;;-139.68;100.00
10940;BME280;5522;42.696;23.494;2023-11-21T01:41:38;53735.19;;;-139.68;100.00
10940;BME280;5522;42.696;23.494;2023-11-21T01:44:05;53697.00;;;-139.68;100.00
10940;BME280;5522;42.696;23.494;2023-11-21T01:46:35;53723.13;;;-139.68;100.00
10940;BME280;5522;42.696;23.494;2023-11-21T01:49:03;53688.97;;;-139.68;100.00
10940;BME280;5522;42.696;23.494;2023-11-21T01:51:31;53703.03;;;-139.68;100.00
10940;BME280;5522;42.696;23.494;2023-11-21T01:53:58;53741.22;;;-139.68;100.00
10940;BME280;5522;42.696;23.494;2023-11-21T01:56:25;53735.19;;;-139.68;100.00
10940;BME280;5522;42.696;23.494;2023-11-21T01:58:54;53731.19;;;-139.68;100.00
10940;BME280;5522;42.696;23.494;2023-11-21T02:01:22;53725.16;;;-139.68;100.00
10940;BME280;5522;42.696;23.494;2023-11-21T02:03:49;53741.22;;;-139.68;100.00
10940;BME280;5522;42.696;23.494;2023-11-21T02:06:16;53745.25;;;-139.68;100.00
10940;BME280;5522;42.696;23.494;2023-11-21T02:08:43;53690.97;;;-139.68;100.00
10940;BME280;5522;42.696;23.494;2023-11-21T02:11:10;53695.00;;;-139.68;100.00
10940;BME280;5522;42.696;23.494;2023-11-21T02:13:38;53753.28;;;-139.68;100.00
10940;BME280;5522;42.696;23.494;2023-11-21T02:16:10;53690.97;;;-139.68;100.00
10940;BME280;5522;42.696;23.494;2023-11-21T02:18:38;53678.91;;;-139.68;100.00
10940;BME280;5522;42.696;23.494;2023-11-21T02:21:05;53707.06;;;-139.68;100.00
10940;BME280;5522;42.696;23.494;2023-11-21T02:23:33;53705.06;;;-139.68;100.00
10940;BME280;5522;42.696;23.494;2023-11-21T02:26:00;53686.97;;;-139.68;100.00
10940;BME280;5522;42.696;23.494;2023-11-21T02:28:29;53715.09;;;-139.68;100.00
10940;BME280;5522;42.696;23.494;2023-11-21T02:30:56;53711.09;;;-139.68;100.00
10940;BME280;5522;42.696;23.494;2023-11-21T02:33:24;53723.13;;;-139.68;100.00
10940;BME280;5522;42.696;23.494;2023-11-21T02:35:51;53719.13;;;-139.68;100.00
10940;BME280;5522;42.696;23.494;2023-11-21T02:38:20;53715.09;;;-139.68;100.00
10940;BME280;5522;42.696;23.494;2023-11-21T02:40:48;53705.06;;;-139.68;100.00
10940;BME280;5522;42.696;23.494;2023-11-21T02:43:15;53747.25;;;-139.68;100.00
10940;BME280;5522;42.696;23.494;2023-11-21T02:45:42;53676.91;;;-139.68;100.00
10940;BME280;5522;42.696;23.494;2023-11-21T02:48:09;53697.00;;;-139.68;100.00
10940;BME280;5522;42.696;23.494;2023-11-21T02:50:36;53725.16;;;-139.68;100.00
10940;BME280;5522;42.696;23.494;2023-11-21T02:53:03;53711.09;;;-139.68;100.00
10940;BME280;5522;42.696;23.494;2023-11-21T02:55:31;53688.97;;;-139.68;100.00
10940;BME280;5522;42.696;23.494;2023-11-21T02:58:01;53741.22;;;-139.68;100.00
10940;BME280;5522;42.696;23.494;2023-11-21T03:00:29;53739.22;;;-139.68;100.00
10940;BME280;5522;42.696;23.494;2023-11-21T03:02:56;53666.84;;;-139.68;100.00
10940;BME280;5522;42.696;23.494;2023-11-21T03:05:23;53650.78;;;-139.68;100.00
10940;BME280;5522;42.696;23.494;2023-11-21T03:07:50;53723.13;;;-139.68;100.00
10940;BME280;5522;42.696;23.494;2023-11-21T03:10:16;53674.91;;;-139.68;100.00
10940;BME280;5522;42.696;23.494;2023-11-21T03:12:44;53723.13;;;-139.68;100.00
10940;BME280;5522;42.696;23.494;2023-11-21T03:15:13;53693.00;;;-139.68;100.00
10940;BME280;5522;42.696;23.494;2023-11-21T03:17:40;53684.94;;;-139.68;100.00
10940;BME280;5522;42.696;23.494;2023-11-21T03:20:08;53761.34;;;-139.68;100.00
10940;BME280;5522;42.696;23.494;2023-11-21T03:22:36;53733.19;;;-139.68;100.00
10940;BME280;5522;42.696;23.494;2023-11-21T03:25:04;53690.97;;;-139.68;100.00
10940;BME280;5522;42.696;23.494;2023-11-21T03:27:31;53695.00;;;-139.68;100.00
10940;BME280;5522;42.696;23.494;2023-11-21T03:29:58;53707.06;;;-139.68;100.00
10940;BME280;5522;42.696;23.494;2023-11-21T03:32:26;53678.91;;;-139.68;100.00
10940;BME280;5522;42.696;23.494;2023-11-21T03:34:54;53727.16;;;-139.68;100.00
10940;BME280;5522;42.696;23.494;2023-11-21T03:37:23;53703.03;;;-139.68;100.00
10940;BME280;5522;42.696;23.494;2023-11-21T03:39:50;53727.16;;;-139.68;100.00
10940;BME280;5522;42.696;23.494;2023-11-21T03:42:17;53690.97;;;-139.68;100.00
10940;BME280;5522;42.696;23.494;2023-11-21T03:44:44;53695.00;;;-139.68;100.00
10940;BME280;5522;42.696;23.494;2023-11-21T03:47:11;53701.03;;;-139.68;100.00
10940;BME280;5522;42.696;23.494;2023-11-21T03:49:39;53731.19;;;-139.68;100.00
10940;BME280;5522;42.696;23.494;2023-11-21T03:52:06;53713.09;;;-139.68;100.00
10940;BME280;5522;42.696;23.494;2023-11-21T03:54:34;53695.00;;;-139.68;100.00
10940;BME280;5522;42.696;23.494;2023-11-21T03:57:01;53705.06;;;-139.68;100.00
10940;BME280;5522;42.696;23.494;2023-11-21T03:59:28;53695.00;;;-139.68;100.00
10940;BME280;5522;42.696;23.494;2023-11-21T04:01:55;53717.13;;;-139.68;100.00
10940;BME280;5522;42.696;23.494;2023-11-21T04:04:22;53690.97;;;-139.68;100.00
10940;BME280;5522;42.696;23.494;2023-11-21T04:06:51;53737.22;;;-139.68;100.00
10940;BME280;5522;42.696;23.494;2023-11-21T04:09:18;53711.09;;;-139.68;100.00
10940;BME280;5522;42.696;23.494;2023-11-21T04:11:45;53737.22;;;-139.68;100.00
10940;BME280;5522;42.696;23.494;2023-11-21T04:14:13;53731.19;;;-139.68;100.00
10940;BME280;5522;42.696;23.494;2023-11-21T04:16:40;53707.06;;;-139.68;100.00
10940;BME280;5522;42.696;23.494;2023-11-21T04:19:07;53709.06;;;-139.68;100.00
10940;BME280;5522;42.696;23.494;2023-11-21T04:21:36;53686.97;;;-139.68;100.00
10940;BME280;5522;42.696;23.494;2023-11-21T04:24:06;53680.94;;;-139.68;100.00
10940;BME280;5522;42.696;23.494;2023-11-21T04:26:33;53709.06;;;-139.68;100.00
10940;BME280;5522;42.696;23.494;2023-11-21T04:29:00;53680.94;;;-139.68;100.00
10940;BME280;5522;42.696;23.494;2023-11-21T04:31:27;53693.00;;;-139.68;100.00
10940;BME280;5522;42.696;23.494;2023-11-21T04:33:54;53705.06;;;-139.68;100.00
10940;BME280;5522;42.696;23.494;2023-11-21T04:36:20;53703.03;;;-139.68;100.00
10940;BME280;5522;42.696;23.494;2023-11-21T04:38:47;53709.06;;;-139.68;100.00
10940;BME280;5522;42.696;23.494;2023-11-21T04:41:16;53731.19;;;-139.68;100.00
10940;BME280;5522;42.696;23.494;2023-11-21T04:43:43;53727.16;;;-139.68;100.00
10940;BME280;5522;42.696;23.494;2023-11-21T04:46:10;53676.91;;;-139.68;100.00
10940;BME280;5522;42.696;23.494;2023-11-21T04:48:37;53737.22;;;-139.68;100.00
10940;BME280;5522;42.696;23.494;2023-11-21T04:51:04;53684.94;;;-139.68;100.00
10940;BME280;5522;42.696;23.494;2023-11-21T04:53:31;53693.00;;;-139.68;100.00
10940;BME280;5522;42.696;23.494;2023-11-21T04:55:58;53711.09;;;-139.68;100.00
10940;BME280;5522;42.696;23.494;2023-11-21T04:58:26;53674.91;;;-139.68;100.00
10940;BME280;5522;42.696;23.494;2023-11-21T05:00:53;53699.03;;;-139.68;100.00
10940;BME280;5522;42.696;23.494;2023-11-21T05:03:20;53711.09;;;-139.68;100.00
10940;BME280;5522;42.696;23.494;2023-11-21T05:05:49;53719.13;;;-139.68;100.00
10940;BME280;5522;42.696;23.494;2023-11-21T05:08:16;53701.03;;;-139.68;100.00
10940;BME280;5522;42.696;23.494;2023-11-21T05:10:43;53703.03;;;-139.68;100.00
10940;BME280;5522;42.696;23.494;2023-11-21T05:13:10;53703.03;;;-139.68;100.00
10940;BME280;5522;42.696;23.494;2023-11-21T05:15:38;53678.91;;;-139.68;100.00
10940;BME280;5522;42.696;23.494;2023-11-21T05:18:05;53739.22;;;-139.68;100.00
10940;BME280;5522;42.696;23.494;2023-11-21T05:20:32;53695.00;;;-139.68;100.00
10940;BME280;5522;42.696;23.494;2023-11-21T05:22:59;53729.16;;;-139.68;100.00
10940;BME280;5522;42.696;23.494;2023-11-21T05:25:26;53699.03;;;-139.68;100.00
10940;BME280;5522;42.696;23.494;2023-11-21T05:27:54;53690.97;;;-139.68;100.00
10940;BME280;5522;42.696;23.494;2023-11-21T05:30:24;53705.06;;;-139.68;100.00
10940;BME280;5522;42.696;23.494;2023-11-21T05:32:53;53731.19;;;-139.68;100.00
10940;BME280;5522;42.696;23.494;2023-11-21T05:35:21;53715.09;;;-139.68;100.00
10940;BME280;5522;42.696;23.494;2023-11-21T05:37:47;53729.16;;;-139.68;100.00
10940;BME280;5522;42.696;23.494;2023-11-21T05:40:15;53686.97;;;-139.68;100.00
10940;BME280;5522;42.696;23.494;2023-11-21T05:42:43;53705.06;;;-139.68;100.00
10940;BME280;5522;42.696;23.494;2023-11-21T05:45:10;53690.97;;;-139.68;100.00
10940;BME280;5522;42.696;23.494;2023-11-21T05:47:38;53723.13;;;-139.68;100.00
10940;BME280;5522;42.696;23.494;2023-11-21T05:50:08;53715.09;;;-139.68;100.00
10940;BME280;5522;42.696;23.494;2023-11-21T05:52:37;53747.25;;;-139.68;100.00
10940;BME280;5522;42.696;23.494;2023-11-21T05:55:05;53693.00;;;-139.68;100.00
10940;BME280;5522;42.696;23.494;2023-11-21T05:57:33;53715.09;;;-139.68;100.00
10940;BME280;5522;42.696;23.494;2023-11-21T06:00:03;53731.19;;;-139.68;100.00
10940;BME280;5522;42.696;23.494;2023-11-21T06:02:37;53739.22;;;-139.68;100.00
10940;BME280;5522;42.696;23.494;2023-11-21T06:05:04;53747.25;;;-139.68;100.00
10940;BME280;5522;42.696;23.494;2023-11-21T06:07:33;53715.09;;;-139.68;100.00
10940;BME280;5522;42.696;23.494;2023-11-21T06:10:01;53755.31;;;-139.68;100.00
10940;BME280;5522;42.696;23.494;2023-11-21T06:12:28;53757.31;;;-139.68;100.00
10940;BME280;5522;42.696;23.494;2023-11-21T06:14:55;53739.22;;;-139.68;100.00
10940;BME280;5522;42.696;23.494;2023-11-21T06:17:22;53686.97;;;-139.68;100.00
10940;BME280;5522;42.696;23.494;2023-11-21T06:19:50;53753.28;;;-139.68;100.00
10940;BME280;5522;42.696;23.494;2023-11-21T06:22:18;53747.25;;;-139.68;100.00
10940;BME280;5522;42.696;23.494;2023-11-21T06:24:54;53745.25;;;-139.68;100.00
10940;BME280;5522;42.696;23.494;2023-11-21T06:27:21;53763.34;;;-139.68;100.00
10940;BME280;5522;42.696;23.494;2023-11-21T06:29:50;53733.19;;;-139.68;100.00
10940;BME280;5522;42.696;23.494;2023-11-21T06:32:17;53765.34;;;-139.68;100.00
10940;BME280;5522;42.696;23.494;2023-11-21T06:34:46;53785.47;;;-139.68;100.00
10940;BME280;5522;42.696;23.494;2023-11-21T06:37:12;53735.19;;;-139.68;100.00
10940;BME280;5522;42.696;23.494;2023-11-21T06:39:39;53759.31;;;-139.68;100.00
10940;BME280;5522;42.696;23.494;2023-11-21T06:42:08;53727.16;;;-139.68;100.00
10940;BME280;5522;42.696;23.494;2023-11-21T06:44:36;53751.28;;;-139.68;100.00
10940;BME280;5522;42.696;23.494;2023-11-21T06:47:03;53789.47;;;-139.68;100.00
10940;BME280;5522;42.696;23.494;2023-11-21T06:49:30;53773.41;;;-139.68;100.00
10940;BME280;5522;42.696;23.494;2023-11-21T06:51:57;53775.41;;;-139.68;98.58
10940;BME280;5522;42.696;23.494;2023-11-21T06:54:28;53801.53;;;-139.68;91.94
10940;BME280;5522;42.696;23.494;2023-11-21T06:56:55;53773.41;;;-139.68;85.72
10940;BME280;5522;42.696;23.494;2023-11-21T06:59:23;53789.47;;;-139.68;78.20
10940;BME280;5522;42.696;23.494;2023-11-21T07:01:50;53775.41;;;-139.68;77.64
10940;BME280;5522;42.696;23.494;2023-11-21T07:04:17;53829.69;;;-139.68;67.56
10940;BME280;5522;42.696;23.494;2023-11-21T07:06:44;53803.56;;;-139.68;59.24
10940;BME280;5522;42.696;23.494;2023-11-21T07:09:11;53809.59;;;-139.68;58.07
10940;BME280;5522;42.696;23.494;2023-11-21T07:11:40;53765.34;;;-139.68;58.93
10940;BME280;5522;42.696;23.494;2023-11-21T07:14:10;53787.47;;;-139.68;62.22
10940;BME280;5522;42.696;23.494;2023-11-21T07:16:39;53765.34;;;-139.68;60.69
10940;BME280;5522;42.696;23.494;2023-11-21T07:19:08;53815.63;;;-139.68;60.47
10940;BME280;5522;42.696;23.494;2023-11-21T07:21:36;53789.47;;;-139.68;56.55
10940;BME280;5522;42.696;23.494;2023-11-21T07:24:09;53809.59;;;-139.68;53.86
10940;BME280;5522;42.696;23.494;2023-11-21T07:26:36;53791.50;;;-139.68;52.09
10940;BME280;5522;42.696;23.494;2023-11-21T07:29:04;53833.72;;;-139.68;51.96
10940;BME280;5522;42.696;23.494;2023-11-21T07:31:31;53787.47;;;-139.68;51.74
10940;BME280;5522;42.696;23.494;2023-11-21T07:34:01;53809.59;;;-139.68;59.82
10940;BME280;5522;42.696;23.494;2023-11-21T07:36:28;53837.72;;;-139.68;59.21
10940;BME280;5522;42.696;23.494;2023-11-21T07:38:59;53805.56;;;-139.68;59.55
10940;BME280;5522;42.696;23.494;2023-11-21T07:41:28;53781.44;;;-139.68;58.46
10940;BME280;5522;42.696;23.494;2023-11-21T07:43:55;53795.50;;;-139.68;57.89
10940;BME280;5522;42.696;23.494;2023-11-21T07:46:22;53795.50;;;-139.68;57.60
10940;BME280;5522;42.696;23.494;2023-11-21T07:48:49;53837.72;;;-139.68;52.70
10940;BME280;5522;42.696;23.494;2023-11-21T07:51:19;53805.56;;;-139.68;51.71
10940;BME280;5522;42.696;23.494;2023-11-21T07:53:46;53823.66;;;-139.68;50.52
10940;BME280;5522;42.696;23.494;2023-11-21T07:56:13;53801.53;;;-139.68;49.57
10940;BME280;5522;42.696;23.494;2023-11-21T07:58:39;53821.66;;;-139.68;50.31
10940;BME280;5522;42.696;23.494;2023-11-21T08:01:06;53819.63;;;-139.68;51.46
10940;BME280;5522;42.696;23.494;2023-11-21T08:03:33;53855.81;;;-139.68;55.27
10940;BME280;5522;42.696;23.494;2023-11-21T08:06:00;53817.63;;;-139.68;57.45
10940;BME280;5522;42.696;23.494;2023-11-21T08:08:30;53837.72;;;-139.68;55.02
10940;BME280;5522;42.696;23.494;2023-11-21T08:10:57;53811.59;;;-139.68;58.75
10940;BME280;5522;42.696;23.494;2023-11-21T08:13:27;53745.25;;;-139.68;64.41
10940;BME280;5522;42.696;23.494;2023-11-21T08:15:55;53851.81;;;-139.68;69.86
10940;BME280;5522;42.696;23.494;2023-11-21T08:18:22;53839.75;;;-139.68;79.50
10940;BME280;5522;42.696;23.494;2023-11-21T08:20:49;53847.78;;;-139.68;79.41
10940;BME280;5522;42.696;23.494;2023-11-21T08:23:16;53789.47;;;-139.68;80.05
10940;BME280;5522;42.696;23.494;2023-11-21T08:25:45;53809.59;;;-139.68;72.06
10940;BME280;5522;42.696;23.494;2023-11-21T08:28:12;53823.66;;;-139.68;69.46
10940;BME280;5522;42.696;23.494;2023-11-21T08:30:44;53875.94;;;-139.68;71.73
10940;BME280;5522;42.696;23.494;2023-11-21T08:33:11;53811.59;;;-139.68;69.71
10940;BME280;5522;42.696;23.494;2023-11-21T08:35:38;53823.66;;;-139.68;69.34
10940;BME280;5522;42.696;23.494;2023-11-21T08:38:05;53809.59;;;-139.68;70.21
10940;BME280;5522;42.696;23.494;2023-11-21T08:40:32;53855.81;;;-139.68;71.11
10940;BME280;5522;42.696;23.494;2023-11-21T08:43:01;53837.72;;;-139.68;69.35
10940;BME280;5522;42.696;23.494;2023-11-21T08:45:30;53811.59;;;-139.68;63.44
10940;BME280;5522;42.696;23.494;2023-11-21T08:47:58;53843.75;;;-139.68;59.36
10940;BME280;5522;42.696;23.494;2023-11-21T08:50:25;53817.63;;;-139.68;53.03
10940;BME280;5522;42.696;23.494;2023-11-21T08:52:52;53815.63;;;-139.68;51.24
10940;BME280;5522;42.696;23.494;2023-11-21T08:55:19;53825.66;;;-139.68;48.63
10940;BME280;5522;42.696;23.494;2023-11-21T08:57:46;53827.69;;;-139.68;51.60
10940;BME280;5522;42.696;23.494;2023-11-21T09:00:14;53845.78;;;-139.68;53.33
10940;BME280;5522;42.696;23.494;2023-11-21T09:02:42;53881.97;;;-139.68;48.73
10940;BME280;5522;42.696;23.494;2023-11-21T09:05:10;53883.97;;;-139.68;47.57
10940;BME280;5522;42.696;23.494;2023-11-21T09:07:38;53863.88;;;-139.68;46.33
10940;BME280;5522;42.696;23.494;2023-11-21T09:10:06;53859.84;;;-139.68;47.59
10940;BME280;5522;42.696;23.494;2023-11-21T09:12:34;53821.66;;;-139.68;46.87
10940;BME280;5522;42.696;23.494;2023-11-21T09:15:02;53849.78;;;-139.68;47.39
10940;BME280;5522;42.696;23.494;2023-11-21T09:17:32;53835.72;;;-139.68;45.88
10940;BME280;5522;42.696;23.494;2023-11-21T09:19:59;53827.69;;;-139.68;48.32
10940;BME280;5522;42.696;23.494;2023-11-21T09:22:26;53843.75;;;-139.68;49.70
10940;BME280;5522;42.696;23.494;2023-11-21T09:24:55;53859.84;;;-139.68;51.38
10940;BME280;5522;42.696;23.494;2023-11-21T09:27:23;53815.63;;;-139.68;57.02
10940;BME280;5522;42.696;23.494;2023-11-21T09:29:51;53829.69;;;-139.68;59.92
10940;BME280;5522;42.696;23.494;2023-11-21T09:32:18;53819.63;;;-139.68;64.60
10940;BME280;5522;42.696;23.494;2023-11-21T09:34:48;53859.84;;;-139.68;70.85
10940;BME280;5522;42.696;23.494;2023-11-21T09:37:15;53839.75;;;-139.68;71.62
10940;BME280;5522;42.696;23.494;2023-11-21T09:39:42;53851.81;;;-139.68;69.27
10940;BME280;5522;42.696;23.494;2023-11-21T09:42:11;53823.66;;;-139.68;63.61
10940;BME280;5522;42.696;23.494;2023-11-21T09:44:45;53847.78;;;-139.68;61.11
10940;BME280;5522;42.696;23.494;2023-11-21T09:47:15;53867.88;;;-139.68;58.09
10940;BME280;5522;42.696;23.494;2023-11-21T09:49:43;53843.75;;;-139.68;54.23
10940;BME280;5522;42.696;23.494;2023-11-21T09:52:18;53847.78;;;-139.68;51.60
10940;BME280;5522;42.696;23.494;2023-11-21T09:54:49;53851.81;;;-139.68;50.22
10940;BME280;5522;42.696;23.494;2023-11-21T09:57:17;53900.06;;;-139.68;47.82
10940;BME280;5522;42.696;23.494;2023-11-21T09:59:45;53825.66;;;-139.68;49.81
10940;BME280;5522;42.696;23.494;2023-11-21T10:02:14;53851.81;;;-139.68;50.74
10940;BME280;5522;42.696;23.494;2023-11-21T10:04:44;53853.81;;;-139.68;52.10
10940;BME280;5522;42.696;23.494;2023-11-21T10:07:17;53847.78;;;-139.68;50.09
10940;BME280;5522;42.696;23.494;2023-11-21T10:09:46;53841.75;;;-139.68;50.34
10940;BME280;5522;42.696;23.494;2023-11-21T10:12:17;53825.66;;;-139.68;51.40
10940;BME280;5522;42.696;23.494;2023-11-21T10:14:49;53839.75;;;-139.68;49.08
10940;BME280;5522;42.696;23.494;2023-11-21T10:17:18;53861.84;;;-139.68;47.05
10940;BME280;5522;42.696;23.494;2023-11-21T10:19:47;53847.78;;;-139.68;45.85
10940;BME280;5522;42.696;23.494;2023-11-21T10:22:21;53892.00;;;-139.68;42.68
10940;BME280;5522;42.696;23.494;2023-11-21T10:24:53;53877.94;;;-139.68;40.43
10940;BME280;5522;42.696;23.494;2023-11-21T10:27:26;53851.81;;;-139.68;41.16
10940;BME280;5522;42.696;23.494;2023-11-21T10:29:53;53926.19;;;-139.68;40.14
10940;BME280;5522;42.696;23.494;2023-11-21T10:32:27;53867.88;;;-139.68;38.60
10940;BME280;5522;42.696;23.494;2023-11-21T10:34:57;53849.78;;;-139.68;38.59
10940;BME280;5522;42.696;23.494;2023-11-21T10:37:27;53888.00;;;-139.68;39.66
10940;BME280;5522;42.696;23.494;2023-11-21T10:39:57;53920.16;;;-139.68;40.33
10940;BME280;5522;42.696;23.494;2023-11-21T10:42:24;53851.81;;;-139.68;41.45
10940;BME280;5522;42.696;23.494;2023-11-21T10:44:52;53879.94;;;-139.68;41.60
10940;BME280;5522;42.696;23.494;2023-11-21T10:47:19;53879.94;;;-139.68;42.35
10940;BME280;5522;42.696;23.494;2023-11-21T10:49:48;53873.91;;;-139.68;43.28
10940;BME280;5522;42.696;23.494;2023-11-21T10:52:15;53898.03;;;-139.68;44.83
10940;BME280;5522;42.696;23.494;2023-11-21T10:54:47;53892.00;;;-139.68;45.86
10940;BME280;5522;42.696;23.494;2023-11-21T10:57:18;53900.06;;;-139.68;44.83
10940;BME280;5522;42.696;23.494;2023-11-21T10:59:47;53879.94;;;-139.68;45.76
10940;BME280;5522;42.696;23.494;2023-11-21T11:02:21;53920.16;;;-139.68;48.88
10940;BME280;5522;42.696;23.494;2023-11-21T11:04:52;53863.88;;;-139.68;52.48
10940;BME280;5522;42.696;23.494;2023-11-21T11:07:20;53883.97;;;-139.68;53.75
10940;BME280;5522;42.696;23.494;2023-11-21T11:09:50;53871.91;;;-139.68;55.25
10940;BME280;5522;42.696;23.494;2023-11-21T11:12:17;53908.09;;;-139.68;59.18
10940;BME280;5522;42.696;23.494;2023-11-21T11:14:44;53871.91;;;-139.68;58.12
10940;BME280;5522;42.696;23.494;2023-11-21T11:17:13;53863.88;;;-139.68;60.41
10940;BME280;5522;42.696;23.494;2023-11-21T11:19:41;53871.91;;;-139.68;60.99
10940;BME280;5522;42.696;23.494;2023-11-21T11:22:19;53904.06;;;-139.68;61.53
10940;BME280;5522;42.696;23.494;2023-11-21T11:25:08;53875.94;;;-139.68;63.23
10940;BME280;5522;42.696;23.494;2023-11-21T11:27:49;53865.88;;;-139.68;63.42
10940;BME280;5522;42.696;23.494;2023-11-21T11:30:30;53871.91;;;-139.68;69.03
10940;BME280;5522;42.696;23.494;2023-11-21T11:33:08;53853.81;;;-139.68;69.45
10940;BME280;5522;42.696;23.494;2023-11-21T11:35:53;53857.84;;;-139.68;66.33
10940;BME280;5522;42.696;23.494;2023-11-21T11:38:23;53857.84;;;-139.68;68.85
10940;BME280;5522;42.696;23.494;2023-11-21T11:40:53;53873.91;;;-139.68;65.29
10940;BME280;5522;42.696;23.494;2023-11-21T11:43:25;53871.91;;;-139.68;65.71
10940;BME280;5522;42.696;23.494;2023-11-21T11:45:55;53900.06;;;-139.68;69.86
10940;BME280;5522;42.696;23.494;2023-11-21T11:48:23;53871.91;;;-139.68;68.62
10940;BME280;5522;42.696;23.494;2023-11-21T11:51:02;53890.00;;;-139.68;64.30
10940;BME280;5522;42.696;23.494;2023-11-21T11:53:35;53805.56;;;-139.68;68.37
10940;BME280;5522;42.696;23.494;2023-11-21T11:56:26;53914.13;;;-139.68;73.53
10940;BME280;5522;42.696;23.494;2023-11-21T11:58:57;53849.78;;;-139.68;75.50
10940;BME280;5522;42.696;23.494;2023-11-21T12:01:25;53883.97;;;-139.68;75.26
10940;BME280;5522;42.696;23.494;2023-11-21T12:04:23;53867.88;;;-139.68;77.06
10940;BME280;5522;42.696;23.494;2023-11-21T12:06:57;53851.81;;;-139.68;78.50
10940;BME280;5522;42.696;23.494;2023-11-21T12:09:28;53877.94;;;-139.68;79.52
10940;BME280;5522;42.696;23.494;2023-11-21T12:11:57;53912.13;;;-139.68;80.87
10940;BME280;5522;42.696;23.494;2023-11-21T12:14:24;53871.91;;;-139.68;81.19
10940;BME280;5522;42.696;23.494;2023-11-21T12:16:51;53851.81;;;-139.68;83.75
10940;BME280;5522;42.696;23.494;2023-11-21T12:19:18;53843.75;;;-139.68;85.74
10940;BME280;5522;42.696;23.494;2023-11-21T12:21:48;53883.97;;;-139.68;86.36
10940;BME280;5522;42.696;23.494;2023-11-21T12:24:16;53896.03;;;-139.68;88.20
10940;BME280;5522;42.696;23.494;2023-11-21T12:26:43;53877.94;;;-139.68;90.81
10940;BME280;5522;42.696;23.494;2023-11-21T12:29:12;53888.00;;;-139.68;93.81
10940;BME280;5522;42.696;23.494;2023-11-21T12:31:39;53839.75;;;-139.68;96.88
10940;BME280;5522;42.696;23.494;2023-11-21T12:34:06;53859.84;;;-139.68;98.91
10940;BME280;5522;42.696;23.494;2023-11-21T12:36:37;53883.97;;;-139.68;100.00
10940;BME280;5522;42.696;23.494;2023-11-21T12:39:04;53835.72;;;-139.68;100.00
10940;BME280;5522;42.696;23.494;2023-11-21T12:41:31;53871.91;;;-139.68;100.00
10940;BME280;5522;42.696;23.494;2023-11-21T12:43:58;53865.88;;;-139.68;100.00
10940;BME280;5522;42.696;23.494;2023-11-21T12:46:26;53865.88;;;-139.68;100.00
10940;BME280;5522;42.696;23.494;2023-11-21T12:48:57;53831.69;;;-139.68;100.00